Time;durP1;ratioP1;P1;durP2;ratioP2;P2;SDS_P1;SDS_P2;PMS_P1;PMS_P2;Temp;Humidity;BMP_temperature;BMP_pressure;BME280_temperature;BME280_humidity;BME280_pressure;Samples;Min_cycle;Max_cycle;Signal;HPM_P1;HPM_P2
2022/05/06 00:01:00;;;;;;;11.98;6.10;;;8.00;99.90;;;;;;5065065;28;20124;-71
2022/05/06 00:03:26;;;;;;;20.30;11.25;;;8.00;99.90;;;;;;5050667;28;20071;-71
2022/05/06 00:05:52;;;;;;;17.75;9.43;;;7.90;99.90;;;;;;5050481;28;20460;-71
2022/05/06 00:08:18;;;;;;;12.48;8.48;;;7.90;99.90;;;;;;5051799;28;20132;-71
2022/05/06 00:10:43;;;;;;;21.73;11.10;;;7.80;99.90;;;;;;5033365;28;20404;-71
2022/05/06 00:13:09;;;;;;;37.75;16.88;;;7.80;99.90;;;;;;5049825;28;20120;-71
2022/05/06 00:15:35;;;;;;;75.25;14.07;;;7.80;99.90;;;;;;5051061;28;20450;-71
2022/05/06 00:18:01;;;;;;;44.88;18.48;;;7.90;99.90;;;;;;5051380;28;20389;-71
2022/05/06 00:20:27;;;;;;;76.15;15.75;;;7.90;99.90;;;;;;5049686;28;20039;-71
2022/05/06 00:22:52;;;;;;;42.55;19.85;;;7.90;99.90;;;;;;5051251;28;20045;-71
2022/05/06 00:25:18;;;;;;;46.33;19.90;;;7.90;99.90;;;;;;5051692;28;20045;-71
2022/05/06 00:27:43;;;;;;;36.35;18.30;;;7.90;99.90;;;;;;5047848;28;20060;-71
2022/05/06 00:30:10;;;;;;;159.75;19.17;;;8.00;99.90;;;;;;5050552;28;20094;-71
2022/05/06 00:32:35;;;;;;;233.80;17.30;;;8.00;99.90;;;;;;5056229;28;20070;-71
2022/05/06 00:35:01;;;;;;;29.42;9.93;;;7.90;99.90;;;;;;5044394;28;20162;-71
2022/05/06 00:37:27;;;;;;;12.85;7.68;;;7.80;99.90;;;;;;5046533;28;20123;-71
2022/05/06 00:39:53;;;;;;;13.95;7.80;;;7.70;99.90;;;;;;5046103;28;20381;-70
2022/05/06 00:42:19;;;;;;;157.43;8.65;;;7.50;99.90;;;;;;5052127;28;20385;-70
2022/05/06 00:44:44;;;;;;;28.45;9.55;;;7.40;99.90;;;;;;5050309;28;20111;-71
2022/05/06 00:47:10;;;;;;;24.23;11.93;;;7.20;99.90;;;;;;5049707;28;20555;-71
2022/05/06 00:49:36;;;;;;;25.58;10.90;;;7.20;99.90;;;;;;5050580;28;20049;-71
2022/05/06 00:52:04;;;;;;;22.77;11.48;;;7.20;99.90;;;;;;5048304;28;20041;-70
2022/05/06 00:54:33;;;;;;;43.15;18.77;;;7.10;99.90;;;;;;5050917;28;20064;-70
2022/05/06 00:57:00;;;;;;;43.88;18.23;;;7.10;99.90;;;;;;5050698;28;20480;-71
2022/05/06 00:59:26;;;;;;;43.65;19.55;;;7.20;99.90;;;;;;5050165;28;20076;-70
2022/05/06 01:01:51;;;;;;;49.65;19.42;;;7.20;99.90;;;;;;5049893;28;20091;-71
2022/05/06 01:04:17;;;;;;;57.50;24.27;;;7.30;99.90;;;;;;5050769;28;20179;-71
2022/05/06 01:06:44;;;;;;;64.78;26.15;;;7.30;99.90;;;;;;5047769;28;20045;-71
2022/05/06 01:09:15;;;;;;;66.75;26.48;;;7.40;99.90;;;;;;5045102;28;20048;-71
2022/05/06 01:11:42;;;;;;;63.70;25.42;;;7.50;99.90;;;;;;5050468;28;20084;-71
2022/05/06 01:14:08;;;;;;;69.35;27.23;;;7.50;99.90;;;;;;5050151;28;20041;-71
2022/05/06 01:16:37;;;;;;;77.40;28.35;;;7.60;99.90;;;;;;5049384;28;20040;-71
2022/05/06 01:19:04;;;;;;;76.82;27.98;;;7.60;99.90;;;;;;5049727;28;20036;-71
2022/05/06 01:21:34;;;;;;;80.13;28.98;;;7.60;99.90;;;;;;5033743;28;20372;-71
2022/05/06 01:24:00;;;;;;;46.03;19.98;;;7.60;99.90;;;;;;5045958;28;20041;-71
2022/05/06 01:26:53;;;;;;;56.53;23.20;;;7.60;99.90;;;;;;5050187;28;20059;-71
2022/05/06 01:29:22;;;;;;;22.70;12.05;;;7.70;99.90;;;;;;5049956;28;20182;-71
2022/05/06 01:31:51;;;;;;;19.60;11.43;;;7.60;99.90;;;;;;5048099;28;20070;-71
2022/05/06 01:34:18;;;;;;;25.08;12.90;;;7.60;99.90;;;;;;5050327;28;20029;-70
2022/05/06 01:36:46;;;;;;;27.00;13.73;;;7.50;99.90;;;;;;5029711;28;20124;-71
2022/05/06 01:39:15;;;;;;;32.30;15.52;;;7.50;99.90;;;;;;5036905;28;20119;-70
2022/05/06 01:41:43;;;;;;;30.95;15.32;;;7.40;99.90;;;;;;5046080;28;20093;-70
2022/05/06 01:44:09;;;;;;;33.70;14.40;;;7.30;99.90;;;;;;5049208;28;20183;-70
2022/05/06 01:46:36;;;;;;;36.53;17.83;;;7.30;99.90;;;;;;5049321;28;20076;-70
2022/05/06 01:49:03;;;;;;;29.98;14.30;;;7.20;99.90;;;;;;5049162;28;20124;-71
2022/05/06 01:51:29;;;;;;;27.70;13.48;;;7.20;99.90;;;;;;5049158;28;20045;-71
2022/05/06 01:53:55;;;;;;;20.08;10.60;;;7.20;99.90;;;;;;5049495;28;20040;-70
2022/05/06 01:56:21;;;;;;;23.85;10.57;;;7.20;99.90;;;;;;5050260;28;20029;-70
2022/05/06 01:58:48;;;;;;;19.48;9.80;;;7.20;99.90;;;;;;5047472;28;20045;-70
2022/05/06 02:01:14;;;;;;;24.65;10.73;;;7.10;99.90;;;;;;5050104;28;20495;-71
2022/05/06 02:06:23;;;;;;;29.67;12.82;;;7.10;99.90;;;;;;5048207;28;20064;-70
2022/05/06 02:08:49;;;;;;;25.67;11.90;;;7.00;99.90;;;;;;5046751;28;20045;-70
2022/05/06 02:11:15;;;;;;;36.75;13.75;;;6.90;99.90;;;;;;5047977;28;20076;-70
2022/05/06 02:13:40;;;;;;;17.73;8.50;;;6.90;99.90;;;;;;5045702;28;20420;-70
2022/05/06 02:16:06;;;;;;;13.63;6.60;;;6.80;99.90;;;;;;5047212;28;20072;-70
2022/05/06 02:18:32;;;;;;;11.77;6.38;;;6.80;99.90;;;;;;5046980;28;20036;-70
2022/05/06 02:20:59;;;;;;;8.18;5.22;;;6.70;99.90;;;;;;5046668;28;20043;-70
2022/05/06 02:23:26;;;;;;;7.88;5.32;;;6.60;99.90;;;;;;5080750;28;20127;-70
2022/05/06 02:25:51;;;;;;;13.27;6.72;;;6.50;99.90;;;;;;5047531;28;20051;-70
2022/05/06 02:28:17;;;;;;;39.53;7.65;;;6.40;99.90;;;;;;5047375;28;20032;-70
2022/05/06 02:33:28;;;;;;;59.53;8.40;;;6.20;99.90;;;;;;5059375;28;20044;-70
2022/05/06 02:35:54;;;;;;;10.63;6.22;;;6.00;99.90;;;;;;5044915;28;20036;-70
2022/05/06 02:38:21;;;;;;;9.40;6.63;;;5.90;99.90;;;;;;5047688;28;20441;-70
2022/05/06 02:40:48;;;;;;;7.63;5.85;;;5.90;99.90;;;;;;5076679;28;20054;-70
2022/05/06 02:43:13;;;;;;;7.03;4.43;;;5.90;99.90;;;;;;5074051;28;20048;-70
2022/05/06 02:45:39;;;;;;;12.25;6.22;;;5.70;99.90;;;;;;5045027;28;20048;-70
2022/05/06 02:48:05;;;;;;;236.38;12.70;;;5.70;99.90;;;;;;5040904;28;20041;-70
2022/05/06 02:50:31;;;;;;;170.85;10.75;;;5.60;99.90;;;;;;5038334;28;20044;-70
2022/05/06 02:52:56;;;;;;;74.53;9.88;;;5.50;99.90;;;;;;5046834;28;20453;-70
2022/05/06 02:55:23;;;;;;;144.10;12.63;;;5.50;99.90;;;;;;5045973;28;20035;-70
2022/05/06 02:57:50;;;;;;;77.13;11.57;;;5.40;99.90;;;;;;5045795;28;20039;-70
2022/05/06 03:00:16;;;;;;;17.00;9.70;;;5.40;99.90;;;;;;5045028;28;20032;-70
2022/05/06 03:02:41;;;;;;;22.05;11.60;;;5.50;99.90;;;;;;5043132;28;20038;-70
2022/05/06 03:05:08;;;;;;;18.15;10.13;;;5.50;99.90;;;;;;5047179;28;20476;-70
2022/05/06 03:07:34;;;;;;;25.98;10.07;;;5.50;99.90;;;;;;5046861;28;20514;-70
2022/05/06 03:09:59;;;;;;;102.35;13.02;;;5.60;99.90;;;;;;5046049;28;20057;-70
2022/05/06 03:12:29;;;;;;;139.20;14.93;;;5.60;99.90;;;;;;5046453;28;20400;-70
2022/05/06 03:14:55;;;;;;;119.15;16.52;;;5.60;99.90;;;;;;5046760;28;20388;-70
2022/05/06 03:17:21;;;;;;;72.20;16.75;;;5.60;99.90;;;;;;5042894;28;20033;-70
2022/05/06 03:19:46;;;;;;;82.70;16.40;;;5.60;99.90;;;;;;5042045;28;20091;-70
2022/05/06 03:22:15;;;;;;;27.38;11.93;;;5.60;99.90;;;;;;5046813;28;20127;-70
2022/05/06 03:24:42;;;;;;;23.20;10.93;;;5.60;99.90;;;;;;5046135;28;20048;-70
2022/05/06 03:27:59;;;;;;;24.42;11.52;;;5.60;99.90;;;;;;5045565;28;20040;-70
2022/05/06 03:29:53;;;;;;;20.05;10.70;;;5.60;99.90;;;;;;5024263;28;1023194;-70
2022/05/06 03:32:19;;;;;;;15.43;8.63;;;5.60;99.90;;;;;;5047565;28;20084;-70
2022/05/06 03:34:44;;;;;;;676.28;32.17;;;5.50;99.90;;;;;;5062905;28;20090;-70
2022/05/06 03:37:10;;;;;;;125.25;12.68;;;5.50;99.90;;;;;;5047914;28;20029;-71
2022/05/06 03:39:35;;;;;;;84.55;12.68;;;5.40;99.90;;;;;;5047167;28;20055;-70
2022/05/06 03:42:01;;;;;;;69.00;11.80;;;5.40;99.90;;;;;;5040925;28;20138;-70
2022/05/06 03:44:27;;;;;;;23.98;12.65;;;5.40;99.90;;;;;;5045843;28;20039;-70
2022/05/06 03:46:53;;;;;;;21.60;12.85;;;5.40;99.90;;;;;;5043642;28;20036;-70
2022/05/06 03:49:18;;;;;;;37.25;14.73;;;5.50;99.90;;;;;;5049412;28;20047;-70
2022/05/06 03:51:47;;;;;;;96.18;17.85;;;5.50;99.90;;;;;;5041612;28;20045;-71
2022/05/06 03:54:13;;;;;;;115.25;19.25;;;5.60;99.90;;;;;;5050290;28;20098;-70
2022/05/06 03:56:38;;;;;;;142.45;19.75;;;5.70;99.90;;;;;;5035756;28;20037;-70
2022/05/06 03:59:04;;;;;;;452.33;31.55;;;5.80;99.90;;;;;;5044720;28;20091;-70
2022/05/06 04:01:30;;;;;;;534.63;36.35;;;5.80;99.90;;;;;;5047587;28;20037;-70
2022/05/06 04:03:56;;;;;;;610.75;39.78;;;5.90;99.90;;;;;;5047061;28;20055;-70
2022/05/06 04:06:21;;;;;;;419.52;33.75;;;5.90;99.90;;;;;;5044393;28;20045;-69
2022/05/06 04:08:47;;;;;;;284.15;30.67;;;5.90;99.90;;;;;;5046703;28;20191;-71
2022/05/06 04:11:13;;;;;;;467.08;38.30;;;5.90;99.90;;;;;;5047364;28;20041;-70
2022/05/06 04:13:39;;;;;;;459.05;40.78;;;6.00;99.90;;;;;;5042618;28;20033;-70
2022/05/06 04:16:06;;;;;;;331.90;34.78;;;6.20;99.90;;;;;;5047649;28;20037;-70
2022/05/06 04:18:32;;;;;;;180.70;28.80;;;6.20;99.90;;;;;;5045473;28;20029;-70
2022/05/06 04:23:42;;;;;;;302.88;31.27;;;6.40;99.90;;;;;;5046396;28;20159;-70
2022/05/06 04:26:12;;;;;;;154.13;27.77;;;6.40;99.90;;;;;;5046882;28;20143;-71
2022/05/06 04:28:39;;;;;;;256.35;33.30;;;6.50;99.90;;;;;;5046609;28;20033;-71
2022/05/06 04:31:06;;;;;;;182.73;29.92;;;6.60;99.90;;;;;;5046173;28;20542;-70
2022/05/06 04:33:32;;;;;;;84.28;26.50;;;6.70;99.90;;;;;;5048211;28;20404;-70
2022/05/06 04:35:59;;;;;;;95.85;26.10;;;6.70;99.90;;;;;;5049463;28;20041;-71
2022/05/06 04:38:26;;;;;;;211.15;29.15;;;6.80;99.90;;;;;;5049892;28;20503;-70
2022/05/06 04:40:54;;;;;;;226.60;30.38;;;6.90;99.90;;;;;;5049691;28;20087;-70
2022/05/06 04:43:20;;;;;;;162.25;31.13;;;7.00;99.90;;;;;;5049615;28;20041;-71
2022/05/06 04:45:46;;;;;;;289.42;35.63;;;7.00;99.90;;;;;;5050345;28;20037;-71
2022/05/06 04:48:12;;;;;;;198.70;32.40;;;7.10;99.90;;;;;;5048614;28;20404;-71
2022/05/06 04:50:38;;;;;;;126.68;30.45;;;7.20;99.90;;;;;;5053926;28;20040;-71
2022/05/06 04:53:08;;;;;;;396.25;42.22;;;7.30;99.90;;;;;;5047977;28;20068;-71
2022/05/06 04:55:35;;;;;;;121.00;33.22;;;7.30;99.90;;;;;;5050745;28;20091;-71
2022/05/06 04:58:02;;;;;;;466.27;49.85;;;7.40;99.90;;;;;;5049571;28;20098;-70
2022/05/06 05:00:28;;;;;;;439.40;46.88;;;7.50;99.90;;;;;;5044582;28;20037;-71
2022/05/06 05:02:53;;;;;;;322.80;43.72;;;7.60;99.90;;;;;;5050155;28;20041;-71
2022/05/06 05:05:19;;;;;;;412.75;45.42;;;7.70;99.90;;;;;;5046397;28;20373;-71
2022/05/06 05:07:44;;;;;;;554.30;56.55;;;7.80;99.90;;;;;;5048703;28;20028;-71
2022/05/06 05:10:10;;;;;;;362.92;44.90;;;7.80;99.90;;;;;;5047618;28;20040;-71
2022/05/06 05:12:36;;;;;;;251.15;41.38;;;7.90;99.90;;;;;;5048630;28;20049;-70
2022/05/06 05:15:02;;;;;;;528.72;54.90;;;8.00;99.90;;;;;;5044795;28;20037;-71
2022/05/06 05:17:28;;;;;;;600.03;57.78;;;8.10;99.90;;;;;;5047449;28;20068;-71
2022/05/06 05:19:54;;;;;;;215.82;40.05;;;8.20;99.90;;;;;;5040927;28;20136;-71
2022/05/06 05:22:20;;;;;;;354.88;46.55;;;8.30;99.90;;;;;;5041733;28;20552;-70
2022/05/06 05:24:46;;;;;;;782.63;60.40;;;8.40;99.90;;;;;;5043652;28;20033;-71
2022/05/06 05:27:13;;;;;;;804.90;60.03;;;8.60;99.90;;;;;;5045631;28;20095;-70
2022/05/06 05:29:39;;;;;;;559.75;48.80;;;8.70;99.90;;;;;;5045786;28;20104;-72
2022/05/06 05:32:05;;;;;;;552.75;46.28;;;8.90;99.90;;;;;;5055466;28;20259;-70
2022/05/06 05:34:31;;;;;;;483.90;43.75;;;9.10;99.90;;;;;;5050396;28;20447;-71
2022/05/06 05:36:56;;;;;;;577.85;52.42;;;9.20;99.90;;;;;;5043727;28;20040;-71
2022/05/06 05:39:22;;;;;;;485.13;46.70;;;9.40;99.90;;;;;;5055637;28;20041;-70
2022/05/06 05:41:47;;;;;;;513.95;50.50;;;9.40;99.90;;;;;;5053886;28;20033;-70
2022/05/06 05:49:41;;;;;;;552.70;52.67;;;9.70;99.90;;;;;;5056516;28;20044;-71
2022/05/06 05:52:07;;;;;;;542.30;53.75;;;9.80;99.90;;;;;;5057818;28;20116;-70
2022/05/06 05:54:32;;;;;;;686.85;57.80;;;9.80;99.90;;;;;;5036242;28;20582;-71
2022/05/06 05:57:01;;;;;;;531.08;53.95;;;10.00;99.90;;;;;;5053601;28;20040;-71
2022/05/06 05:59:27;;;;;;;545.58;57.80;;;10.10;99.90;;;;;;5056335;28;20037;-71
2022/05/06 06:01:53;;;;;;;629.42;57.45;;;10.20;99.90;;;;;;5052733;28;20036;-70
2022/05/06 06:04:18;;;;;;;644.85;57.78;;;10.30;99.90;;;;;;5053348;28;20041;-69
2022/05/06 06:06:44;;;;;;;360.48;52.10;;;10.40;99.90;;;;;;5054414;28;20384;-71
2022/05/06 06:09:09;;;;;;;587.80;60.97;;;10.40;99.90;;;;;;5050332;28;20503;-73
2022/05/06 06:11:35;;;;;;;599.88;59.75;;;10.50;99.90;;;;;;5053585;28;21893;-69
2022/05/06 06:14:02;;;;;;;553.95;59.25;;;10.60;99.90;;;;;;5057023;28;20395;-71
2022/05/06 06:16:29;;;;;;;358.42;50.25;;;10.60;99.90;;;;;;5033505;28;20118;-71
2022/05/06 06:18:58;;;;;;;541.50;60.30;;;10.50;99.90;;;;;;5080647;28;20041;-71
2022/05/06 06:21:25;;;;;;;571.75;60.08;;;10.60;99.90;;;;;;5048733;28;20565;-73
2022/05/06 06:23:50;;;;;;;510.98;57.83;;;10.70;99.90;;;;;;5031753;28;20625;-71
2022/05/06 06:26:16;;;;;;;487.73;53.17;;;10.70;99.90;;;;;;5062603;28;20048;-73
2022/05/06 06:28:41;;;;;;;367.60;46.47;;;10.70;99.90;;;;;;5040513;28;20036;-70
2022/05/06 06:31:07;;;;;;;425.65;47.33;;;10.70;99.90;;;;;;5049339;28;20106;-72
2022/05/06 06:33:37;;;;;;;381.00;45.88;;;10.60;99.90;;;;;;5056357;28;20032;-72
2022/05/06 06:36:04;;;;;;;355.85;39.95;;;10.80;99.90;;;;;;5033984;28;20045;-72
2022/05/06 06:38:43;;;;;;;327.25;41.00;;;10.80;99.90;;;;;;5047231;28;20448;-72
2022/05/06 06:41:09;;;;;;;279.20;35.60;;;10.70;99.90;;;;;;5050494;28;20405;-71
2022/05/06 06:43:35;;;;;;;195.73;31.98;;;10.80;99.90;;;;;;5048782;28;20407;-70
2022/05/06 06:46:04;;;;;;;194.75;31.17;;;10.90;99.90;;;;;;5041631;28;20132;-70
2022/05/06 06:48:30;;;;;;;225.57;36.33;;;10.90;99.90;;;;;;5044296;28;20052;-69
2022/05/06 06:50:56;;;;;;;260.50;38.30;;;11.00;99.90;;;;;;5055580;28;20491;-71
2022/05/06 06:53:22;;;;;;;205.70;34.22;;;11.10;99.90;;;;;;5046003;28;20048;-70
2022/05/06 06:55:48;;;;;;;197.63;32.58;;;11.00;99.90;;;;;;5047779;28;20033;-69
2022/05/06 06:58:14;;;;;;;171.23;31.00;;;11.10;99.90;;;;;;5046688;28;20047;-70
2022/05/06 07:00:42;;;;;;;223.50;35.00;;;11.20;99.90;;;;;;5047265;28;20041;-69
2022/05/06 07:03:08;;;;;;;225.15;34.83;;;11.30;99.90;;;;;;5045426;28;20500;-70
2022/05/06 07:05:34;;;;;;;148.70;30.88;;;11.20;99.90;;;;;;5048633;28;20068;-70
2022/05/06 07:13:30;;;;;;;157.10;28.80;;;11.30;99.90;;;;;;5048947;28;20068;-70
2022/05/06 07:15:55;;;;;;;131.85;29.50;;;11.40;99.90;;;;;;5047833;28;20055;-69
2022/05/06 07:18:21;;;;;;;162.50;31.98;;;11.40;99.90;;;;;;5028535;28;20038;-69
2022/05/06 07:20:48;;;;;;;143.30;32.05;;;11.60;99.90;;;;;;5028311;28;20045;-69
2022/05/06 07:23:13;;;;;;;138.68;31.60;;;11.70;99.90;;;;;;5040202;28;20043;-69
2022/05/06 07:25:39;;;;;;;118.85;27.75;;;11.80;99.90;;;;;;5048620;28;20037;-69
2022/05/06 07:28:06;;;;;;;131.20;30.55;;;12.00;99.90;;;;;;5048020;28;20049;-71
2022/05/06 07:30:31;;;;;;;133.48;30.70;;;11.90;99.90;;;;;;5031970;28;20492;-71
2022/05/06 07:32:57;;;;;;;124.53;29.67;;;12.00;99.90;;;;;;5053176;28;20080;-71
2022/05/06 07:35:23;;;;;;;128.07;29.38;;;12.20;99.90;;;;;;5048802;28;20380;-69
2022/05/06 07:37:48;;;;;;;127.50;30.42;;;12.30;99.90;;;;;;5047637;28;20483;-69
2022/05/06 07:40:15;;;;;;;116.75;29.58;;;12.10;99.90;;;;;;5059471;28;20033;-68
2022/05/06 07:42:42;;;;;;;114.88;29.20;;;12.20;99.90;;;;;;5046586;28;20033;-69
2022/05/06 07:45:09;;;;;;;88.45;25.73;;;12.20;99.90;;;;;;5047367;28;20049;-71
2022/05/06 07:47:34;;;;;;;67.95;21.30;;;12.30;99.90;;;;;;5044443;28;20047;-71
2022/05/06 07:50:01;;;;;;;57.10;20.65;;;12.30;99.90;;;;;;5042689;28;20127;-70
2022/05/06 07:52:26;;;;;;;57.95;21.13;;;12.40;99.90;;;;;;5043195;28;20043;-69
2022/05/06 07:54:52;;;;;;;51.72;19.08;;;12.40;99.90;;;;;;5058736;28;20151;-71
2022/05/06 07:57:18;;;;;;;59.50;24.17;;;12.50;99.90;;;;;;5056327;28;20041;-67
2022/05/06 07:59:44;;;;;;;70.72;25.65;;;12.50;99.90;;;;;;5043489;28;20128;-69
2022/05/06 08:04:53;;;;;;;66.05;24.50;;;12.40;99.90;;;;;;5045143;28;20047;-70
2022/05/06 08:07:19;;;;;;;57.75;23.17;;;12.40;99.90;;;;;;5049877;28;20430;-68
2022/05/06 08:09:45;;;;;;;60.67;23.73;;;12.40;99.90;;;;;;5036019;28;20047;-69
2022/05/06 08:12:13;;;;;;;54.88;23.05;;;12.50;99.90;;;;;;5051274;28;20040;-69
2022/05/06 08:14:39;;;;;;;51.53;23.20;;;12.50;99.90;;;;;;5044283;28;20472;-69
2022/05/06 08:17:05;;;;;;;43.10;21.15;;;12.50;99.90;;;;;;5051038;28;20083;-70
2022/05/06 08:19:30;;;;;;;43.63;20.75;;;12.50;99.90;;;;;;5034515;28;20032;-69
2022/05/06 08:21:56;;;;;;;43.22;20.35;;;12.70;99.90;;;;;;5049984;28;20483;-69
2022/05/06 08:24:23;;;;;;;40.95;20.15;;;12.80;99.90;;;;;;5051702;28;20045;-69
2022/05/06 08:26:49;;;;;;;42.40;20.45;;;12.90;99.90;;;;;;5051261;28;20049;-69
2022/05/06 08:29:15;;;;;;;40.00;19.23;;;13.20;99.90;;;;;;5034185;28;20064;-70
2022/05/06 08:31:41;;;;;;;40.58;19.95;;;13.30;99.90;;;;;;5051163;28;20040;-69
2022/05/06 08:34:09;;;;;;;39.05;20.52;;;13.30;99.90;;;;;;5051246;28;20091;-68
2022/05/06 08:36:36;;;;;;;37.83;19.35;;;13.50;99.90;;;;;;5054093;28;20086;-72
2022/05/06 08:39:04;;;;;;;41.97;20.40;;;13.70;99.90;;;;;;5034681;28;20137;-71
2022/05/06 08:41:30;;;;;;;34.85;19.45;;;13.70;99.90;;;;;;5048128;28;20496;-68
2022/05/06 08:43:57;;;;;;;34.35;18.75;;;13.90;99.90;;;;;;5047833;28;20042;-70
2022/05/06 08:51:56;;;;;;;30.88;18.20;;;14.30;99.90;;;;;;5065101;28;20067;-71
2022/05/06 08:54:22;;;;;;;28.85;16.90;;;14.40;99.90;;;;;;5035684;28;20029;-67
2022/05/06 08:56:48;;;;;;;29.25;16.40;;;14.60;99.90;;;;;;5030509;28;20128;-72
2022/05/06 08:59:14;;;;;;;32.13;16.92;;;14.60;99.90;;;;;;5050090;28;20480;-71
2022/05/06 09:01:41;;;;;;;26.25;15.85;;;14.80;99.90;;;;;;5049533;28;20044;-69
2022/05/06 09:04:07;;;;;;;30.33;17.25;;;14.70;99.90;;;;;;5033422;28;20119;-72
2022/05/06 09:06:33;;;;;;;29.77;16.75;;;14.50;99.90;;;;;;5050303;28;20483;-72
2022/05/06 09:08:59;;;;;;;24.80;15.85;;;14.60;99.90;;;;;;5045971;28;20047;-71
2022/05/06 09:14:15;;;;;;;28.75;16.85;;;14.70;99.90;;;;;;5050039;28;20059;-73
2022/05/06 09:16:40;;;;;;;29.88;16.55;;;14.90;99.90;;;;;;5049064;28;20037;-69
2022/05/06 09:19:19;;;;;;;28.83;17.00;;;15.10;99.90;;;;;;5048652;28;20048;-72
2022/05/06 09:22:03;;;;;;;26.90;16.67;;;15.30;99.90;;;;;;5065669;28;20095;-70
2022/05/06 09:24:30;;;;;;;30.10;16.77;;;15.50;99.90;;;;;;5044051;28;20111;-70
2022/05/06 09:26:57;;;;;;;25.95;15.70;;;15.80;99.90;;;;;;5030871;28;20400;-72
2022/05/06 09:29:43;;;;;;;28.13;16.60;;;16.00;99.90;;;;;;5046981;28;20048;-74
2022/05/06 09:32:18;;;;;;;26.58;16.42;;;16.20;99.90;;;;;;5047736;28;20068;-73
2022/05/06 09:34:45;;;;;;;23.58;15.30;;;16.40;99.90;;;;;;5048742;28;20064;-68
2022/05/06 09:37:11;;;;;;;26.58;16.40;;;16.50;99.90;;;;;;5046437;28;20041;-73
2022/05/06 09:39:39;;;;;;;27.00;16.13;;;16.40;99.90;;;;;;5048039;28;20033;-73
2022/05/06 09:42:06;;;;;;;27.77;17.08;;;16.50;99.90;;;;;;5047320;28;20029;-73
2022/05/06 09:44:33;;;;;;;26.05;15.75;;;16.50;99.90;;;;;;5049753;28;20042;-73
2022/05/06 09:47:12;;;;;;;23.25;15.05;;;16.60;99.90;;;;;;5048518;28;20056;-73
2022/05/06 09:49:49;;;;;;;24.95;16.13;;;16.70;99.90;;;;;;5046326;28;20029;-71
2022/05/06 09:52:16;;;;;;;23.70;15.65;;;16.70;99.90;;;;;;5046836;28;20048;-72
2022/05/06 09:54:43;;;;;;;25.92;14.93;;;16.70;99.90;;;;;;5049131;28;20041;-70
2022/05/06 09:57:11;;;;;;;24.75;15.73;;;16.70;99.90;;;;;;5048384;28;20087;-73
2022/05/06 09:59:37;;;;;;;26.45;15.90;;;16.70;99.90;;;;;;5048580;28;20037;-71
2022/05/06 10:02:04;;;;;;;22.65;14.85;;;16.70;99.90;;;;;;5046507;28;20072;-73
2022/05/06 10:04:30;;;;;;;21.42;14.55;;;16.70;99.90;;;;;;5049651;28;20083;-75
2022/05/06 10:07:00;;;;;;;21.58;13.93;;;16.80;99.90;;;;;;5048780;28;20476;-75
2022/05/06 10:09:27;;;;;;;24.35;14.52;;;16.90;99.90;;;;;;5031935;28;20403;-73
2022/05/06 10:11:55;;;;;;;21.88;13.00;;;16.90;99.90;;;;;;5046012;28;20477;-72
2022/05/06 10:14:22;;;;;;;21.77;12.63;;;17.00;99.90;;;;;;5046150;28;20472;-74
2022/05/06 10:16:48;;;;;;;21.02;13.18;;;16.90;99.90;;;;;;5049752;28;20673;-70
2022/05/06 10:19:32;;;;;;;17.75;12.38;;;17.00;99.90;;;;;;5048853;28;20098;-73
2022/05/06 10:21:59;;;;;;;17.95;11.63;;;17.10;99.90;;;;;;5032018;28;20102;-69
2022/05/06 10:24:36;;;;;;;25.13;11.68;;;17.30;99.90;;;;;;5048581;28;20071;-69
2022/05/06 10:27:22;;;;;;;20.45;11.13;;;17.20;99.90;;;;;;5050883;28;20037;-72
2022/05/06 10:32:55;;;;;;;17.50;11.50;;;17.30;99.90;;;;;;5045191;28;20055;-73
2022/05/06 10:35:38;;;;;;;23.23;12.20;;;17.20;99.90;;;;;;5032852;28;20047;-73
2022/05/06 10:38:19;;;;;;;;;;;17.30;99.90;;;;;;5049096;28;20565;-73
2022/05/06 10:40:49;;;;;;;18.42;10.82;;;17.50;99.90;;;;;;5035711;28;20430;-71
2022/05/06 10:43:40;;;;;;;16.67;11.88;;;17.70;99.90;;;;;;5042433;28;20064;-74
2022/05/06 10:46:06;;;;;;;15.02;10.57;;;17.90;99.90;;;;;;5041183;28;20037;-72
2022/05/06 10:48:32;;;;;;;17.90;9.52;;;17.80;99.90;;;;;;5050381;28;20116;-73
2022/05/06 10:51:24;;;;;;;10.35;7.30;;;17.70;99.90;;;;;;5062206;28;20179;-74
2022/05/06 10:53:50;;;;;;;13.98;8.55;;;17.70;99.90;;;;;;5062461;28;20446;-71
2022/05/06 10:56:16;;;;;;;14.80;9.80;;;17.60;99.90;;;;;;5045171;28;20030;-72
2022/05/06 10:58:42;;;;;;;14.43;9.52;;;17.60;99.90;;;;;;5043308;28;20037;-74
2022/05/06 11:01:15;;;;;;;14.25;9.68;;;17.60;99.90;;;;;;5048053;28;20102;-69
2022/05/06 11:03:54;;;;;;;17.23;9.55;;;17.70;99.90;;;;;;5044474;28;20411;-71
2022/05/06 11:06:23;;;;;;;16.65;10.23;;;17.80;99.90;;;;;;5062044;28;20492;-73
2022/05/06 11:08:48;;;;;;;15.50;10.45;;;17.80;99.90;;;;;;5011545;28;20049;-72
2022/05/06 11:11:19;;;;;;;14.57;9.40;;;17.80;99.90;;;;;;5043618;28;20037;-76
2022/05/06 11:13:47;;;;;;;15.35;10.15;;;17.80;99.90;;;;;;5047544;28;20032;-74
2022/05/06 11:16:17;;;;;;;12.43;8.35;;;17.90;99.90;;;;;;5048451;28;20572;-74
2022/05/06 11:18:44;;;;;;;13.57;9.13;;;18.00;99.90;;;;;;5046299;28;20055;-73
2022/05/06 11:21:23;;;;;;;13.23;8.63;;;18.10;99.90;;;;;;5047974;28;20047;-73
2022/05/06 11:23:52;;;;;;;15.90;9.73;;;18.30;99.90;;;;;;5047927;28;20047;-72
2022/05/06 11:26:30;;;;;;;12.43;8.43;;;18.40;99.90;;;;;;5048030;28;20518;-73
2022/05/06 11:29:05;;;;;;;14.85;8.43;;;18.50;99.90;;;;;;5047637;28;20053;-72
2022/05/06 11:31:32;;;;;;;14.32;9.02;;;18.60;99.90;;;;;;5048048;28;20128;-73
2022/05/06 11:34:04;;;;;;;14.13;9.23;;;18.70;99.90;;;;;;5029267;28;20064;-69
2022/05/06 11:36:30;;;;;;;12.88;9.27;;;18.70;99.90;;;;;;5031055;28;20037;-71
2022/05/06 11:38:56;;;;;;;15.38;9.02;;;18.70;99.90;;;;;;5062585;28;20047;-73
2022/05/06 11:41:21;;;;;;;14.27;9.38;;;18.80;99.90;;;;;;5067446;28;20048;-72
2022/05/06 11:43:47;;;;;;;16.63;9.52;;;18.90;99.90;;;;;;5052116;28;20451;-71
2022/05/06 11:49:02;;;;;;;14.40;8.43;;;18.90;99.90;;;;;;5084237;28;20393;-72
2022/05/06 11:51:31;;;;;;;15.80;9.07;;;19.10;99.90;;;;;;5051217;28;20132;-70
2022/05/06 11:53:57;;;;;;;15.20;9.38;;;19.20;99.90;;;;;;5051685;28;20462;-72
2022/05/06 11:56:27;;;;;;;18.45;10.48;;;19.30;99.90;;;;;;5050622;28;20099;-73
2022/05/06 11:58:57;;;;;;;18.23;10.27;;;19.40;99.90;;;;;;5032832;28;20037;-72
2022/05/06 12:01:34;;;;;;;18.88;10.85;;;19.40;99.90;;;;;;5051489;28;20048;-72
2022/05/06 12:04:07;;;;;;;16.98;9.90;;;19.50;99.90;;;;;;5051672;28;20041;-73
2022/05/06 12:06:37;;;;;;;17.55;9.48;;;19.50;99.90;;;;;;5050938;28;20080;-73
2022/05/06 12:09:14;;;;;;;17.13;8.52;;;19.50;99.90;;;;;;5084766;28;20049;-73
2022/05/06 12:11:40;;;;;;;18.00;9.85;;;19.60;99.90;;;;;;5039684;28;20102;-71
2022/05/06 12:14:19;;;;;;;15.38;10.25;;;19.70;99.90;;;;;;5068125;28;20041;-71
2022/05/06 12:16:55;;;;;;;16.48;9.93;;;19.70;99.90;;;;;;5054005;28;20029;-72
2022/05/06 12:19:35;;;;;;;17.67;9.70;;;19.70;99.90;;;;;;5035053;28;20044;-73
2022/05/06 12:22:24;;;;;;;19.65;10.05;;;19.90;99.90;;;;;;5049245;28;20327;-72
2022/05/06 12:24:52;;;;;;;15.50;8.40;;;20.00;99.90;;;;;;5055510;28;20049;-71
2022/05/06 12:27:31;;;;;;;14.57;8.40;;;19.90;99.90;;;;;;5038098;28;20041;-75
2022/05/06 12:30:01;;;;;;;14.70;9.38;;;19.70;99.90;;;;;;5042203;28;20045;-71
2022/05/06 12:32:30;;;;;;;16.20;9.10;;;19.70;99.90;;;;;;5051180;28;20124;-70
2022/05/06 12:35:09;;;;;;;25.15;10.23;;;19.70;99.90;;;;;;5050700;28;20055;-72
2022/05/06 12:37:54;;;;;;;19.08;8.50;;;19.60;99.90;;;;;;5047233;28;20067;-73
2022/05/06 12:40:20;;;;;;;17.60;9.13;;;19.70;99.90;;;;;;5049198;28;20046;-72
2022/05/06 12:43:05;;;;;;;16.40;8.82;;;19.90;99.90;;;;;;5051132;28;20048;-73
2022/05/06 12:45:31;;;;;;;13.43;8.00;;;20.00;99.90;;;;;;5051110;28;20037;-74
2022/05/06 12:51:02;;;;;;;12.77;7.60;;;20.20;99.90;;;;;;5011630;28;20508;-74
2022/05/06 12:53:28;;;;;;;14.75;8.52;;;20.30;99.90;;;;;;5007876;28;20033;-75
2022/05/06 12:55:54;;;;;;;19.35;9.23;;;20.30;99.90;;;;;;5023761;28;20051;-76
2022/05/06 12:58:23;;;;;;;14.10;9.10;;;20.10;99.90;;;;;;5048617;28;20133;-75
2022/05/06 13:00:49;;;;;;;19.50;9.75;;;20.10;99.90;;;;;;5048602;28;20051;-70
2022/05/06 13:03:15;;;;;;;16.50;10.43;;;20.10;99.90;;;;;;5048059;28;20037;-76
2022/05/06 13:05:43;;;;;;;24.73;10.52;;;20.10;99.90;;;;;;5051346;28;20045;-72
2022/05/06 13:08:09;;;;;;;16.35;9.55;;;20.20;99.90;;;;;;5050559;28;20120;-74
2022/05/06 13:10:35;;;;;;;15.20;9.48;;;20.10;99.90;;;;;;5049602;28;20556;-74
2022/05/06 13:13:02;;;;;;;17.35;9.98;;;20.00;99.90;;;;;;5050865;28;20037;-73